createdAt,value
2018-09-03T00:02:12.606Z,21.97
2018-09-03T00:04:41.114Z,20.10
2018-09-03T00:07:10.174Z,20.47
2018-09-03T00:09:41.130Z,21.53
2018-09-03T00:12:12.586Z,20.43
2018-09-03T00:14:41.438Z,19.37
2018-09-03T00:17:10.427Z,19.20
2018-09-03T00:19:39.891Z,22.60
2018-09-03T00:22:23.147Z,21.90
2018-09-03T00:24:51.770Z,24.63
2018-09-03T00:27:20.942Z,21.90
2018-09-03T00:29:49.495Z,20.67
2018-09-03T00:32:23.486Z,25.80
2018-09-03T00:34:58.104Z,22.20
2018-09-03T00:37:31.926Z,23.87
2018-09-03T00:40:05.674Z,21.47
2018-09-03T00:42:39.578Z,23.60
2018-09-03T00:45:14.510Z,20.00
2018-09-03T00:47:43.063Z,23.70
2018-09-03T00:50:11.643Z,22.23
2018-09-03T00:52:40.202Z,23.07
2018-09-03T00:55:09.782Z,20.53
2018-09-03T00:57:38.465Z,21.60
2018-09-03T01:00:07.811Z,21.53
2018-09-03T01:02:36.489Z,19.87
2018-09-03T01:05:05.087Z,20.90
2018-09-03T01:07:36.431Z,19.23
2018-09-03T01:10:06.319Z,18.80
2018-09-03T01:12:35.100Z,21.40
2018-09-03T01:15:05.270Z,20.60
2018-09-03T01:17:34.427Z,21.53
2018-09-03T01:20:02.984Z,17.97
2018-09-03T01:22:31.805Z,19.30
2018-09-03T01:25:00.682Z,18.83
2018-09-03T01:27:29.275Z,18.60
2018-09-03T01:29:57.862Z,18.90
2018-09-03T01:32:26.423Z,19.97
2018-09-03T01:34:55.010Z,22.00
2018-09-03T01:37:23.550Z,20.50
2018-09-03T01:39:52.135Z,17.60
2018-09-03T01:42:20.714Z,17.90
2018-09-03T01:44:49.278Z,19.70
2018-09-03T01:47:18.714Z,21.10
2018-09-03T01:49:47.294Z,20.63
2018-09-03T01:52:15.837Z,19.60
2018-09-03T01:54:44.358Z,25.10
2018-09-03T01:57:13.646Z,19.07
2018-09-03T01:59:42.406Z,19.80
2018-09-03T02:02:12.641Z,22.07
2018-09-03T02:04:41.902Z,19.57
2018-09-03T02:07:10.465Z,18.17
2018-09-03T02:09:39.059Z,18.20
2018-09-03T02:12:12.583Z,19.00
2018-09-03T02:14:42.204Z,19.23
2018-09-03T02:17:11.845Z,17.97
2018-09-03T02:19:40.770Z,19.60
2018-09-03T02:22:10.498Z,20.50
2018-09-03T02:24:39.726Z,21.60
2018-09-03T02:27:08.285Z,19.80
2018-09-03T02:29:36.810Z,20.37
2018-09-03T02:32:05.542Z,19.33
2018-09-03T02:34:34.055Z,21.23
2018-09-03T02:37:02.618Z,22.73
2018-09-03T02:39:31.182Z,21.80
2018-09-03T02:42:00.248Z,21.30
2018-09-03T02:44:29.133Z,17.47
2018-09-03T02:46:57.900Z,19.97
2018-09-03T02:49:26.470Z,22.27
2018-09-03T02:51:55.035Z,22.30
2018-09-03T02:54:23.614Z,23.57
2018-09-03T02:56:52.209Z,22.23
2018-09-03T02:59:22.394Z,24.70
2018-09-03T03:01:50.889Z,22.30
2018-09-03T03:04:19.453Z,22.23
2018-09-03T03:06:48.034Z,19.67
2018-09-03T03:09:16.568Z,23.97
2018-09-03T03:11:46.085Z,23.43
2018-09-03T03:14:15.284Z,23.17
2018-09-03T03:16:43.849Z,22.87
2018-09-03T03:19:12.818Z,24.90
2018-09-03T03:21:41.378Z,20.23
2018-09-03T03:24:11.143Z,26.50
2018-09-03T03:26:41.357Z,23.20
2018-09-03T03:29:10.157Z,19.37
2018-09-03T03:31:38.719Z,23.20
2018-09-03T03:34:07.244Z,24.10
2018-09-03T03:36:35.780Z,22.30
2018-09-03T03:39:06.442Z,23.57
2018-09-03T03:41:34.969Z,23.13
2018-09-03T03:44:03.584Z,21.63
2018-09-03T03:46:32.780Z,23.43
2018-09-03T03:49:01.318Z,23.13
2018-09-03T03:51:31.291Z,20.03
2018-09-03T03:53:59.870Z,22.23
2018-09-03T03:56:29.128Z,25.10
2018-09-03T03:58:58.346Z,23.17
2018-09-03T04:01:27.444Z,21.07
2018-09-03T04:03:56.700Z,20.93
2018-09-03T04:06:26.010Z,21.87
2018-09-03T04:08:54.551Z,20.07
2018-09-03T04:11:24.030Z,23.87
2018-09-03T04:13:52.565Z,25.03
2018-09-03T04:16:22.170Z,20.17
2018-09-03T04:18:51.890Z,21.27
2018-09-03T04:21:21.490Z,20.90
2018-09-03T04:23:59.960Z,21.23
2018-09-03T04:26:28.573Z,23.27
2018-09-03T04:28:57.798Z,19.90
2018-09-03T04:31:27.212Z,22.97
2018-09-03T04:33:56.183Z,19.67
2018-09-03T04:36:24.806Z,20.20
2018-09-03T04:38:53.982Z,21.47
2018-09-03T04:41:26.154Z,20.43
2018-09-03T04:43:54.908Z,23.70
2018-09-03T04:46:24.218Z,22.20
2018-09-03T04:48:52.818Z,16.93
2018-09-03T04:51:21.339Z,20.70
2018-09-03T04:53:54.744Z,21.10
2018-09-03T04:56:23.674Z,21.83
2018-09-03T04:58:52.819Z,21.70
2018-09-03T05:01:21.403Z,21.23
2018-09-03T05:03:50.505Z,21.47
2018-09-03T05:06:19.734Z,23.43
2018-09-03T05:08:48.274Z,18.87
2018-09-03T05:11:21.734Z,17.47
2018-09-03T05:13:50.270Z,17.20
2018-09-03T05:16:18.888Z,20.80
2018-09-03T05:18:48.114Z,21.17
2018-09-03T05:21:17.887Z,22.17
2018-09-03T05:23:46.455Z,19.87
2018-09-03T05:26:15.043Z,20.40
2018-09-03T05:28:43.625Z,19.50
2018-09-03T05:32:15.031Z,20.30
2018-09-03T05:34:43.573Z,19.27
2018-09-03T05:37:12.721Z,22.47
2018-09-03T05:39:42.001Z,18.27
2018-09-03T05:42:10.551Z,20.37
2018-09-03T05:44:40.255Z,20.40
2018-09-03T05:47:09.218Z,24.80
2018-09-03T05:49:37.726Z,21.00
2018-09-03T05:52:06.849Z,20.33
2018-09-03T05:54:35.542Z,23.33
2018-09-03T05:57:04.178Z,22.73
2018-09-03T05:59:33.497Z,20.20
2018-09-03T06:02:02.067Z,20.20
2018-09-03T06:04:30.683Z,21.93
2018-09-03T06:06:59.233Z,19.63
2018-09-03T06:09:27.774Z,18.83
2018-09-03T06:11:56.342Z,21.47
2018-09-03T06:14:24.970Z,21.10
2018-09-03T06:16:53.816Z,20.80
2018-09-03T06:19:23.225Z,24.20
2018-09-03T06:21:51.764Z,21.90
2018-09-03T06:24:20.390Z,22.23
2018-09-03T06:26:48.944Z,21.57
2018-09-03T06:29:18.891Z,26.40
2018-09-03T06:31:47.663Z,20.53
2018-09-03T06:34:16.210Z,18.03
2018-09-03T06:36:45.118Z,21.17
2018-09-03T06:39:13.763Z,21.87
2018-09-03T06:41:42.712Z,20.20
2018-09-03T06:44:11.242Z,19.20
2018-09-03T06:46:40.525Z,20.37
2018-09-03T06:49:09.734Z,19.50
2018-09-03T06:51:38.269Z,20.77
2018-09-03T06:54:07.489Z,21.03
2018-09-03T06:56:36.042Z,25.83
2018-09-03T06:59:04.638Z,19.33
2018-09-03T07:01:34.390Z,21.47
2018-09-03T07:04:03.461Z,24.73
2018-09-03T07:06:32.752Z,21.50
2018-09-03T07:09:01.737Z,19.10
2018-09-03T07:11:30.258Z,20.00
2018-09-03T07:13:59.152Z,20.63
2018-09-03T07:16:28.359Z,21.80
2018-09-03T07:18:58.992Z,20.17
2018-09-03T07:21:38.216Z,16.40
2018-09-03T07:24:07.125Z,18.73
2018-09-03T07:26:36.194Z,18.57
2018-09-03T07:29:04.886Z,17.10
2018-09-03T07:31:33.758Z,17.17
2018-09-03T07:34:06.501Z,19.33
2018-09-03T07:36:35.259Z,17.13
2018-09-03T07:39:05.025Z,16.00
2018-09-03T07:41:34.618Z,17.50
2018-09-03T07:44:04.204Z,16.60
2018-09-03T07:46:32.817Z,21.20
2018-09-03T07:49:02.628Z,22.03
2018-09-03T07:51:54.570Z,21.47
2018-09-03T07:54:24.031Z,18.20
2018-09-03T07:56:53.373Z,18.17
2018-09-03T07:59:21.930Z,20.27
2018-09-03T08:01:50.495Z,19.27
2018-09-03T08:04:19.632Z,20.67
2018-09-03T08:06:48.213Z,26.30
2018-09-03T08:09:16.835Z,18.53
2018-09-03T08:11:45.384Z,22.60
2018-09-03T08:14:13.970Z,21.20
2018-09-03T08:16:42.610Z,20.90
2018-09-03T08:19:11.201Z,21.23
2018-09-03T08:21:39.738Z,20.53
2018-09-03T08:24:08.323Z,19.20
2018-09-03T08:26:38.692Z,22.33
2018-09-03T08:29:07.557Z,20.10
2018-09-03T08:31:36.422Z,20.20
2018-09-03T08:34:05.933Z,21.57
2018-09-03T08:36:35.578Z,21.20
2018-09-03T08:39:05.654Z,22.87
2018-09-03T08:41:35.269Z,19.60
2018-09-03T08:44:04.169Z,19.67
2018-09-03T08:46:32.703Z,19.60
2018-09-03T08:49:02.003Z,21.67
2018-09-03T08:51:31.136Z,59.83
2018-09-03T08:53:59.707Z,26.37
2018-09-03T08:56:28.823Z,23.87
2018-09-03T08:58:57.514Z,19.50
2018-09-03T09:01:26.158Z,19.40
2018-09-03T09:03:54.863Z,20.77
2018-09-03T09:06:26.354Z,18.33
2018-09-03T09:08:54.895Z,22.03
2018-09-03T09:11:23.506Z,26.10
2018-09-03T09:13:52.111Z,19.03
2018-09-03T09:16:20.853Z,22.00
2018-09-03T09:18:49.448Z,22.70
2018-09-03T09:21:18.239Z,22.97
2018-09-03T09:23:46.778Z,19.40
2018-09-03T09:26:15.441Z,22.93
2018-09-03T09:28:45.108Z,26.13
2018-09-03T09:31:15.802Z,21.87
2018-09-03T09:33:45.074Z,23.40
2018-09-03T09:36:13.631Z,19.70
2018-09-03T09:38:43.134Z,21.10
2018-09-03T09:41:12.582Z,20.80
2018-09-03T09:43:41.164Z,21.00
2018-09-03T09:46:10.694Z,20.23
2018-09-03T09:48:39.286Z,21.30
2018-09-03T09:51:08.729Z,21.60
2018-09-03T09:53:37.905Z,20.60
2018-09-03T09:56:07.031Z,19.40
2018-09-03T09:58:35.626Z,20.27
2018-09-03T10:01:09.519Z,20.70
2018-09-03T10:03:38.993Z,18.60
2018-09-03T10:06:07.591Z,20.53
2018-09-03T10:08:36.147Z,22.50
2018-09-03T10:11:05.154Z,26.30
2018-09-03T10:13:33.742Z,22.43
2018-09-03T10:16:02.298Z,23.67
2018-09-03T10:18:31.502Z,21.93
2018-09-03T10:21:02.588Z,22.00
2018-09-03T10:23:31.240Z,20.67
2018-09-03T10:25:59.953Z,18.80
2018-09-03T10:28:28.567Z,20.63
2018-09-03T10:30:58.869Z,22.90
2018-09-03T10:33:27.386Z,19.23
2018-09-03T10:35:55.981Z,22.23
2018-09-03T10:38:24.528Z,20.07
2018-09-03T10:40:53.129Z,19.80
2018-09-03T10:43:21.718Z,22.23
2018-09-03T10:45:50.655Z,19.43
2018-09-03T10:48:19.705Z,18.23
2018-09-03T10:50:48.232Z,21.53
2018-09-03T10:53:16.766Z,18.90
2018-09-03T10:55:46.290Z,20.93
2018-09-03T10:58:14.877Z,18.20
2018-09-03T11:00:47.791Z,19.50
2018-09-03T11:03:16.286Z,17.33
2018-09-03T11:05:44.805Z,16.30
2018-09-03T11:08:14.287Z,15.63
2018-09-03T11:10:42.835Z,17.13
2018-09-03T11:13:11.392Z,17.10
2018-09-03T11:15:39.887Z,16.57
2018-09-03T11:18:08.410Z,14.93
2018-09-03T11:20:37.832Z,19.00
2018-09-03T11:23:06.321Z,15.43
2018-09-03T11:25:35.300Z,16.73
2018-09-03T11:28:04.241Z,18.53
2018-09-03T11:30:33.494Z,14.10
2018-09-03T11:33:03.158Z,14.50
2018-09-03T11:35:31.749Z,15.07
2018-09-03T11:38:00.533Z,13.23
2018-09-03T11:40:30.262Z,16.40
2018-09-03T11:42:59.347Z,13.00
2018-09-03T11:45:27.861Z,15.20
2018-09-03T11:48:01.291Z,14.00
2018-09-03T11:50:29.770Z,13.37
2018-09-03T11:52:59.282Z,11.97
2018-09-03T11:55:29.435Z,12.97
2018-09-03T11:57:58.377Z,13.60
2018-09-03T12:00:29.297Z,14.80
2018-09-03T12:02:58.232Z,12.93
2018-09-03T12:05:28.659Z,13.73
2018-09-03T12:07:57.299Z,11.57
2018-09-03T12:10:27.310Z,11.80
2018-09-03T12:12:57.677Z,10.60
2018-09-03T12:15:48.373Z,14.60
2018-09-03T12:18:17.176Z,11.90
2018-09-03T12:20:46.268Z,12.00
2018-09-03T12:23:16.622Z,10.37
2018-09-03T12:25:46.456Z,10.40
2018-09-03T12:28:15.002Z,10.73
2018-09-03T12:30:44.528Z,11.00
2018-09-03T12:33:13.061Z,11.33
2018-09-03T12:35:41.632Z,11.03
2018-09-03T12:38:10.184Z,14.27
2018-09-03T12:40:38.718Z,13.67
2018-09-03T12:43:07.278Z,13.87
2018-09-03T12:45:41.448Z,12.17
2018-09-03T12:48:10.002Z,13.70
2018-09-03T12:50:38.576Z,14.90
2018-09-03T12:53:07.578Z,17.13
2018-09-03T12:55:38.130Z,15.87
2018-09-03T12:58:07.379Z,15.30
2018-09-03T13:00:38.678Z,14.70
2018-09-03T13:03:04.755Z,13.80
2018-09-03T13:05:33.207Z,14.30
2018-09-03T13:08:02.189Z,14.90
2018-09-03T13:10:31.059Z,15.40
2018-09-03T13:13:00.208Z,15.70
2018-09-03T13:15:28.783Z,13.93
2018-09-03T13:17:57.473Z,15.00
2018-09-03T13:20:26.016Z,15.13
2018-09-03T13:22:54.558Z,14.13
2018-09-03T13:25:23.098Z,13.40
2018-09-03T13:27:51.667Z,14.80
2018-09-03T13:30:20.266Z,13.60
2018-09-03T13:32:49.382Z,15.67
2018-09-03T13:35:17.947Z,15.83
2018-09-03T13:37:46.631Z,12.60
2018-09-03T13:40:15.163Z,11.97
2018-09-03T13:42:43.734Z,13.40
2018-09-03T13:45:12.343Z,13.70
2018-09-03T13:47:40.879Z,14.67
2018-09-03T13:50:09.404Z,15.73
2018-09-03T13:52:37.995Z,14.43
2018-09-03T13:55:06.699Z,13.70
2018-09-03T13:57:35.154Z,12.93
2018-09-03T14:00:03.762Z,13.13
2018-09-03T14:02:39.415Z,13.90
2018-09-03T14:05:14.478Z,14.53
2018-09-03T14:07:45.119Z,12.20
2018-09-03T14:10:16.672Z,12.43
2018-09-03T14:12:48.764Z,16.00
2018-09-03T14:15:21.217Z,11.50
2018-09-03T14:17:59.419Z,12.20
2018-09-03T14:20:30.872Z,11.27
2018-09-03T14:23:11.523Z,9.67
2018-09-03T14:25:42.350Z,10.50
2018-09-03T14:28:17.285Z,11.33
2018-09-03T14:33:30.220Z,10.97
2018-09-03T14:36:07.446Z,9.50
2018-09-03T14:38:38.133Z,8.47
2018-09-03T14:41:09.414Z,8.80
2018-09-03T14:43:40.353Z,8.67
2018-09-03T14:46:17.836Z,9.87
2018-09-03T14:48:46.455Z,9.20
2018-09-03T14:51:14.979Z,9.10
2018-09-03T14:53:43.511Z,9.20
2018-09-03T14:56:12.224Z,9.13
2018-09-03T14:58:41.059Z,9.27
2018-09-03T15:01:09.569Z,11.67
2018-09-03T15:03:45.093Z,8.10
2018-09-03T15:06:14.351Z,9.20
2018-09-03T15:11:32.384Z,6.97
2018-09-03T15:14:01.543Z,7.80
2018-09-03T15:16:32.139Z,7.60
2018-09-03T15:19:05.632Z,7.87
2018-09-03T15:21:36.620Z,7.30
2018-09-03T15:24:06.765Z,8.73
2018-09-03T15:26:35.752Z,7.90
2018-09-03T15:29:04.882Z,10.63
2018-09-03T15:31:33.443Z,8.10
2018-09-03T15:34:02.024Z,9.13
2018-09-03T15:36:30.743Z,8.30
2018-09-03T15:38:59.167Z,9.60
2018-09-03T15:41:27.674Z,8.97
2018-09-03T15:43:56.269Z,9.80
2018-09-03T15:46:24.843Z,9.63
2018-09-03T15:48:53.484Z,8.40
2018-09-03T15:51:22.018Z,9.83
2018-09-03T15:53:50.601Z,9.30
2018-09-03T15:56:19.161Z,9.20
2018-09-03T15:58:47.674Z,8.53
2018-09-03T16:01:16.803Z,7.83
2018-09-03T16:03:46.211Z,9.67
2018-09-03T16:06:14.791Z,9.47
2018-09-03T16:08:44.109Z,9.40
2018-09-03T16:11:12.633Z,9.53
2018-09-03T16:13:41.146Z,8.20
2018-09-03T16:16:09.734Z,9.07
2018-09-03T16:18:39.009Z,8.03
2018-09-03T16:21:07.602Z,8.50
2018-09-03T16:23:36.083Z,9.07
2018-09-03T16:26:05.859Z,8.63
2018-09-03T16:28:35.002Z,7.30
2018-09-03T16:31:03.765Z,8.30
2018-09-03T16:33:32.350Z,9.00
2018-09-03T16:36:00.964Z,9.10
2018-09-03T16:38:29.386Z,8.33
2018-09-03T16:40:57.901Z,8.10
2018-09-03T16:43:26.471Z,6.90
2018-09-03T16:45:55.026Z,7.20
2018-09-03T16:48:23.558Z,7.80
2018-09-03T16:50:54.812Z,7.37
2018-09-03T16:53:23.383Z,7.63
2018-09-03T16:55:51.991Z,8.13
2018-09-03T16:58:20.588Z,8.57
2018-09-03T17:00:49.182Z,8.40
2018-09-03T17:03:17.705Z,8.23
2018-09-03T17:05:48.053Z,8.20
2018-09-03T17:08:16.771Z,7.30
2018-09-03T17:10:45.279Z,6.90
2018-09-03T17:13:13.814Z,8.13
2018-09-03T17:15:42.994Z,7.87
2018-09-03T17:18:13.458Z,8.00
2018-09-03T17:20:43.158Z,7.03
2018-09-03T17:23:11.827Z,8.77
2018-09-03T17:25:41.413Z,6.43
2018-09-03T17:28:09.918Z,7.70
2018-09-03T17:30:38.495Z,7.30
2018-09-03T17:33:07.322Z,7.70
2018-09-03T17:35:36.635Z,7.70
2018-09-03T17:38:05.298Z,7.33
2018-09-03T17:40:35.835Z,9.37
2018-09-03T17:43:05.289Z,9.10
2018-09-03T17:45:33.802Z,7.80
2018-09-03T17:48:02.411Z,7.20
2018-09-03T17:50:30.974Z,6.93
2018-09-03T17:53:00.527Z,6.20
2018-09-03T17:55:29.419Z,8.30
2018-09-03T17:57:58.950Z,8.23
2018-09-03T18:00:27.477Z,7.63
2018-09-03T18:02:56.275Z,7.70
2018-09-03T18:05:24.853Z,9.80
2018-09-03T18:07:53.739Z,8.83
2018-09-03T18:10:22.381Z,8.83
2018-09-03T18:12:51.016Z,9.20
2018-09-03T18:15:19.910Z,8.60
2018-09-03T18:17:51.790Z,8.67
2018-09-03T18:20:24.890Z,8.23
2018-09-03T18:22:54.750Z,8.93
2018-09-03T18:25:23.313Z,11.00
2018-09-03T18:27:51.926Z,10.37
2018-09-03T18:30:21.122Z,9.47
2018-09-03T18:32:51.261Z,9.90
2018-09-03T18:35:19.944Z,9.40
2018-09-03T18:37:53.879Z,8.40
2018-09-03T18:40:22.440Z,8.43
2018-09-03T18:42:50.978Z,8.10
2018-09-03T18:45:20.246Z,11.20
2018-09-03T18:47:48.801Z,8.10
2018-09-03T18:50:18.739Z,9.30
2018-09-03T18:52:47.941Z,9.40
2018-09-03T18:55:16.461Z,8.93
2018-09-03T18:57:45.248Z,9.30
2018-09-03T19:00:15.359Z,9.60
2018-09-03T19:02:44.790Z,9.00
2018-09-03T19:05:13.290Z,8.97
2018-09-03T19:07:43.357Z,8.50
2018-09-03T19:10:12.301Z,8.57
2018-09-03T19:12:43.693Z,9.70
2018-09-03T19:15:12.222Z,11.47
2018-09-03T19:17:40.778Z,8.80
2018-09-03T19:20:09.393Z,9.30
2018-09-03T19:22:37.954Z,13.77
2018-09-03T19:25:06.547Z,9.83
2018-09-03T19:27:35.131Z,8.93
2018-09-03T19:30:04.380Z,11.07
2018-09-03T19:32:33.239Z,8.23
2018-09-03T19:35:01.890Z,9.10
2018-09-03T19:37:30.467Z,9.03
2018-09-03T19:39:59.674Z,10.07
2018-09-03T19:42:28.274Z,9.77
2018-09-03T19:44:57.254Z,9.63
2018-09-03T19:47:26.424Z,9.87
2018-09-03T19:49:55.563Z,11.00
2018-09-03T19:52:24.906Z,10.40
2018-09-03T19:54:53.431Z,11.10
2018-09-03T19:57:22.039Z,9.43
2018-09-03T19:59:50.658Z,10.37
2018-09-03T20:02:21.115Z,8.30
2018-09-03T20:04:50.330Z,8.80
2018-09-03T20:07:19.010Z,10.17
2018-09-03T20:09:47.570Z,9.27
2018-09-03T20:12:17.368Z,9.30
2018-09-03T20:14:46.104Z,9.87
2018-09-03T20:17:14.937Z,9.57
2018-09-03T20:19:43.485Z,8.53
2018-09-03T20:22:15.202Z,10.03
2018-09-03T20:24:43.845Z,8.97
2018-09-03T20:27:12.670Z,8.73
2018-09-03T20:29:41.367Z,11.43
2018-09-03T20:32:09.974Z,11.30
2018-09-03T20:34:38.563Z,9.33
2018-09-03T20:37:07.716Z,9.30
2018-09-03T20:39:37.054Z,9.80
2018-09-03T20:42:07.109Z,9.90
2018-09-03T20:44:36.963Z,9.90
2018-09-03T20:47:07.524Z,9.40
2018-09-03T20:49:38.772Z,10.03
2018-09-03T20:52:08.658Z,10.80
2018-09-03T20:54:38.097Z,9.50
2018-09-03T20:57:07.738Z,9.37
2018-09-03T20:59:37.884Z,9.30
2018-09-03T21:02:07.561Z,10.07
2018-09-03T21:04:37.333Z,10.50
2018-09-03T21:07:06.672Z,10.27
2018-09-03T21:09:36.521Z,8.93
2018-09-03T21:12:06.337Z,9.53
2018-09-03T21:14:36.302Z,10.73
2018-09-03T21:17:06.280Z,10.10
2018-09-03T21:19:35.776Z,9.47
2018-09-03T21:22:05.308Z,10.47
2018-09-03T21:24:35.425Z,10.57
2018-09-03T21:27:04.894Z,11.20
2018-09-03T21:29:34.650Z,9.63
2018-09-03T21:32:05.074Z,9.00
2018-09-03T21:34:34.608Z,9.93
2018-09-03T21:37:03.930Z,10.07
2018-09-03T21:39:33.806Z,12.03
2018-09-03T21:42:04.207Z,9.73
2018-09-03T21:44:34.223Z,10.63
2018-09-03T21:47:04.456Z,9.07
2018-09-03T21:49:33.918Z,10.83
2018-09-03T21:52:04.393Z,10.80
2018-09-03T21:54:33.892Z,11.80
2018-09-03T21:57:03.255Z,11.30
2018-09-03T21:59:33.546Z,12.37
2018-09-03T22:02:03.009Z,9.30
2018-09-03T22:04:34.392Z,11.07
2018-09-03T22:07:03.840Z,11.23
2018-09-03T22:09:34.500Z,10.47
2018-09-03T22:12:08.578Z,10.80
2018-09-03T22:14:38.969Z,11.77
2018-09-03T22:17:08.234Z,10.83
2018-09-03T22:19:37.424Z,11.53
2018-09-03T22:22:06.107Z,11.60
2018-09-03T22:24:34.604Z,10.67
2018-09-03T22:27:03.666Z,11.10
2018-09-03T22:29:32.684Z,9.87
2018-09-03T22:32:01.344Z,11.13
2018-09-03T22:34:29.902Z,12.30
2018-09-03T22:36:59.423Z,10.73
2018-09-03T22:39:27.967Z,10.50
2018-09-03T22:41:56.512Z,12.17
2018-09-03T22:44:25.033Z,11.50
2018-09-03T22:46:53.575Z,8.97
2018-09-03T22:49:22.068Z,8.70
2018-09-03T22:51:50.590Z,9.03
2018-09-03T22:54:19.137Z,15.63
2018-09-03T22:56:47.658Z,10.03
2018-09-03T22:59:16.188Z,11.30
2018-09-03T23:01:44.961Z,11.13
2018-09-03T23:04:13.492Z,10.87
2018-09-03T23:06:41.988Z,9.90
2018-09-03T23:09:10.549Z,9.17
2018-09-03T23:11:39.858Z,11.27
2018-09-03T23:14:08.772Z,11.10
2018-09-03T23:16:37.314Z,12.60
2018-09-03T23:19:05.903Z,10.70
2018-09-03T23:21:34.651Z,13.30
2018-09-03T23:24:03.255Z,10.67
2018-09-03T23:26:31.814Z,13.30
2018-09-03T23:29:00.447Z,13.50
2018-09-03T23:31:28.979Z,10.10
2018-09-03T23:33:57.535Z,12.33
2018-09-03T23:36:26.051Z,11.00
2018-09-03T23:38:54.612Z,11.20
2018-09-03T23:41:23.153Z,10.60
2018-09-03T23:43:51.689Z,11.37
2018-09-03T23:46:20.294Z,12.03
2018-09-03T23:48:48.854Z,11.10
2018-09-03T23:51:17.412Z,12.27
2018-09-03T23:53:45.989Z,11.00
2018-09-03T23:56:14.536Z,11.13
2018-09-03T23:58:43.103Z,11.30
